createdAt,value
2018-03-25T00:02:10.201Z,74.00
2018-03-25T00:04:37.711Z,74.00
2018-03-25T00:07:05.225Z,74.00
2018-03-25T00:09:32.758Z,73.90
2018-03-25T00:12:00.215Z,73.60
2018-03-25T00:14:27.666Z,73.50
2018-03-25T00:16:55.805Z,74.20
2018-03-25T00:19:24.059Z,74.10
2018-03-25T00:21:51.529Z,74.00
2018-03-25T00:24:19.002Z,73.70
2018-03-25T00:26:47.225Z,73.30
2018-03-25T00:29:14.686Z,73.20
2018-03-25T00:31:42.142Z,74.20
2018-03-25T00:34:09.589Z,74.30
2018-03-25T00:36:37.067Z,74.10
2018-03-25T00:39:05.221Z,74.10
2018-03-25T00:41:32.700Z,74.30
2018-03-25T00:44:00.876Z,74.50
2018-03-25T00:46:28.396Z,74.60
2018-03-25T00:48:55.843Z,74.70
2018-03-25T00:51:23.315Z,75.20
2018-03-25T00:53:50.787Z,75.20
2018-03-25T00:56:18.244Z,75.20
2018-03-25T00:58:45.697Z,76.00
2018-03-25T01:01:13.168Z,75.30
2018-03-25T01:03:40.604Z,75.50
2018-03-25T01:06:08.061Z,75.80
2018-03-25T01:08:35.506Z,76.00
2018-03-25T01:11:02.968Z,75.90
2018-03-25T01:13:38.852Z,75.80
2018-03-25T01:16:12.002Z,75.70
2018-03-25T01:18:39.535Z,75.90
2018-03-25T01:21:06.987Z,75.80
2018-03-25T01:23:34.457Z,76.10
2018-03-25T01:26:01.899Z,76.00
2018-03-25T01:28:29.368Z,75.90
2018-03-25T01:30:56.813Z,75.90
2018-03-25T01:33:24.772Z,76.00
2018-03-25T01:35:53.881Z,75.90
2018-03-25T01:38:40.972Z,75.90
2018-03-25T01:41:08.407Z,75.60
2018-03-25T01:43:44.067Z,75.60
2018-03-25T01:46:11.509Z,75.70
2018-03-25T01:48:38.948Z,76.00
2018-03-25T01:51:07.248Z,76.60
2018-03-25T01:53:34.714Z,76.50
2018-03-25T01:56:02.164Z,76.70
2018-03-25T01:58:47.736Z,76.60
2018-03-25T02:01:15.953Z,76.60
2018-03-25T02:03:56.652Z,76.60
2018-03-25T02:06:24.103Z,76.60
2018-03-25T02:08:53.337Z,76.50
2018-03-25T02:11:21.548Z,76.10
2018-03-25T02:13:49.021Z,76.10
2018-03-25T02:16:16.465Z,76.20
2018-03-25T02:18:44.014Z,76.40
2018-03-25T02:21:11.503Z,76.50
2018-03-25T02:23:38.959Z,76.30
2018-03-25T02:26:07.449Z,76.20
2018-03-25T02:28:34.895Z,76.10
2018-03-25T02:31:02.552Z,75.90
2018-03-25T02:33:29.996Z,75.90
2018-03-25T02:35:57.503Z,76.10
2018-03-25T02:38:25.739Z,76.70
2018-03-25T02:40:53.222Z,76.60
2018-03-25T02:43:20.765Z,76.80
2018-03-25T02:45:49.261Z,76.80
2018-03-25T02:48:16.746Z,76.90
2018-03-25T02:50:44.152Z,77.00
2018-03-25T02:53:11.614Z,76.90
2018-03-25T02:55:39.134Z,76.80
2018-03-25T02:58:07.361Z,76.90
2018-03-25T03:00:34.808Z,76.90
2018-03-25T03:03:02.294Z,76.60
2018-03-25T03:05:29.756Z,76.80
2018-03-25T03:07:57.203Z,76.80
2018-03-25T03:10:25.455Z,76.70
2018-03-25T03:12:52.907Z,76.50
2018-03-25T03:15:20.553Z,76.60
2018-03-25T03:17:47.999Z,76.50
2018-03-25T03:22:49.481Z,76.60
2018-03-25T03:25:16.927Z,76.90
2018-03-25T03:27:44.374Z,77.10
2018-03-25T03:30:11.829Z,77.10
2018-03-25T03:32:40.056Z,77.20
2018-03-25T03:35:07.505Z,77.10
2018-03-25T03:37:34.983Z,77.20
2018-03-25T03:42:36.440Z,77.10
2018-03-25T03:45:03.891Z,77.20
2018-03-25T03:47:31.336Z,77.40
2018-03-25T03:49:58.799Z,77.50
2018-03-25T03:52:26.268Z,77.30
2018-03-25T03:54:53.736Z,77.40
2018-03-25T03:57:21.194Z,77.20
2018-03-25T03:59:48.683Z,77.20
2018-03-25T04:02:16.908Z,77.30
2018-03-25T04:04:44.380Z,77.10
2018-03-25T04:07:11.843Z,77.40
2018-03-25T04:09:39.390Z,77.40
2018-03-25T04:12:07.069Z,77.60
2018-03-25T04:14:34.557Z,77.90
2018-03-25T04:17:02.777Z,77.70
2018-03-25T04:19:30.233Z,77.70
2018-03-25T04:21:57.694Z,77.70
2018-03-25T04:24:25.149Z,77.80
2018-03-25T04:26:52.661Z,77.50
2018-03-25T04:29:20.899Z,77.40
2018-03-25T04:31:54.261Z,77.30
2018-03-25T04:34:21.764Z,77.40
2018-03-25T04:37:12.410Z,77.50
2018-03-25T04:39:39.871Z,77.30
2018-03-25T04:42:07.348Z,77.30
2018-03-25T04:44:34.811Z,77.00
2018-03-25T04:47:02.257Z,77.00
2018-03-25T04:49:29.713Z,76.80
2018-03-25T04:51:57.165Z,76.80
2018-03-25T04:54:24.624Z,76.90
2018-03-25T04:56:52.078Z,77.10
2018-03-25T04:59:19.539Z,77.50
2018-03-25T05:01:46.982Z,77.30
2018-03-25T05:04:15.222Z,77.50
2018-03-25T05:06:51.300Z,77.40
2018-03-25T05:09:18.784Z,77.20
2018-03-25T05:11:47.022Z,77.50
2018-03-25T05:14:14.467Z,77.50
2018-03-25T05:16:41.924Z,77.40
2018-03-25T05:19:09.419Z,77.60
2018-03-25T05:21:36.901Z,77.60
2018-03-25T05:24:05.141Z,77.50
2018-03-25T05:26:32.567Z,77.50
2018-03-25T05:29:00.022Z,77.60
2018-03-25T05:31:27.548Z,77.60
2018-03-25T05:33:55.752Z,77.80
2018-03-25T05:36:23.251Z,77.70
2018-03-25T05:38:51.491Z,77.50
2018-03-25T05:41:18.958Z,77.40
2018-03-25T05:43:46.477Z,77.20
2018-03-25T05:46:13.921Z,77.00
2018-03-25T05:48:42.138Z,77.30
2018-03-25T05:51:09.586Z,77.20
2018-03-25T05:53:38.146Z,77.40
2018-03-25T05:56:06.470Z,77.60
2018-03-25T05:58:33.994Z,77.40
2018-03-25T06:01:02.352Z,77.40
2018-03-25T06:03:30.577Z,77.70
2018-03-25T06:05:58.042Z,77.60
2018-03-25T06:08:25.491Z,77.80
2018-03-25T06:10:53.055Z,77.90
2018-03-25T06:13:20.520Z,78.00
2018-03-25T06:15:48.049Z,78.10
2018-03-25T06:18:15.424Z,78.30
2018-03-25T06:20:42.887Z,78.50
2018-03-25T06:23:10.492Z,78.60
2018-03-25T06:25:38.707Z,78.90
2018-03-25T06:28:06.173Z,78.90
2018-03-25T06:30:33.622Z,77.70
2018-03-25T06:33:05.681Z,74.90
2018-03-25T06:35:33.155Z,73.00
2018-03-25T06:38:00.608Z,71.20
2018-03-25T06:40:29.979Z,68.40
2018-03-25T06:42:57.464Z,65.60
2018-03-25T06:45:24.921Z,62.00
2018-03-25T06:47:53.428Z,60.00
2018-03-25T06:50:20.873Z,58.40
2018-03-25T06:52:52.022Z,57.00
2018-03-25T06:55:19.477Z,56.00
2018-03-25T06:57:46.936Z,54.60
2018-03-25T07:00:14.395Z,52.60
2018-03-25T07:02:45.179Z,52.00
2018-03-25T07:05:13.432Z,57.60
2018-03-25T07:07:40.884Z,57.60
2018-03-25T07:10:21.921Z,61.20
2018-03-25T07:12:49.365Z,65.40
2018-03-25T07:15:17.535Z,68.40
2018-03-25T07:17:45.718Z,70.20
2018-03-25T07:20:19.260Z,71.10
2018-03-25T07:22:46.713Z,72.10
2018-03-25T07:25:14.178Z,73.30
2018-03-25T07:27:42.392Z,75.50
2018-03-25T07:30:09.904Z,75.40
2018-03-25T07:32:37.359Z,75.90
2018-03-25T07:35:22.145Z,76.10
2018-03-25T07:37:52.058Z,76.30
2018-03-25T07:40:26.783Z,75.90
2018-03-25T07:43:01.204Z,76.90
2018-03-25T07:45:52.900Z,75.80
2018-03-25T07:48:21.866Z,75.70
2018-03-25T07:50:49.461Z,76.30
2018-03-25T07:53:19.084Z,76.10
2018-03-25T07:55:56.136Z,76.20
2018-03-25T07:58:28.351Z,75.90
2018-03-25T08:03:59.738Z,75.00
2018-03-25T08:09:37.517Z,73.60
2018-03-25T08:17:08.408Z,71.90
2018-03-25T08:19:42.483Z,70.60
2018-03-25T08:25:11.796Z,69.00
2018-03-25T08:27:55.358Z,68.80
2018-03-25T08:42:04.143Z,65.90
2018-03-25T08:44:53.988Z,63.50
2018-03-25T08:47:37.566Z,63.50
2018-03-25T08:50:24.343Z,63.60
2018-03-25T08:52:52.716Z,64.60
2018-03-25T08:58:12.434Z,64.00
2018-03-25T09:00:46.270Z,63.60
2018-03-25T09:03:22.054Z,63.00
2018-03-25T09:08:49.973Z,61.70
2018-03-25T09:11:28.334Z,61.00
2018-03-25T09:13:59.377Z,61.00
2018-03-25T09:16:26.918Z,60.80
2018-03-25T09:18:58.391Z,61.10
2018-03-25T09:21:25.847Z,60.30
2018-03-25T09:23:58.025Z,61.30
2018-03-25T09:26:46.664Z,60.50
2018-03-25T09:29:14.165Z,60.40
2018-03-25T09:31:42.691Z,59.90
2018-03-25T09:34:10.175Z,59.80
2018-03-25T09:36:37.685Z,59.40
2018-03-25T09:39:05.143Z,58.10
2018-03-25T09:41:32.694Z,59.00
2018-03-25T09:44:01.784Z,59.00
2018-03-25T09:46:29.306Z,58.90
2018-03-25T09:49:02.484Z,58.70
2018-03-25T09:51:30.028Z,58.80
2018-03-25T09:54:21.580Z,57.30
2018-03-25T09:56:49.138Z,57.60
2018-03-25T09:59:16.631Z,58.00
2018-03-25T10:01:49.877Z,57.10
2018-03-25T10:04:17.361Z,57.30
2018-03-25T10:06:44.864Z,55.70
2018-03-25T10:09:12.342Z,55.00
2018-03-25T10:11:39.879Z,55.80
2018-03-25T10:14:07.317Z,55.50
2018-03-25T10:16:35.550Z,52.50
2018-03-25T10:19:02.988Z,52.40
2018-03-25T10:21:30.470Z,51.80
2018-03-25T10:23:58.013Z,52.10
2018-03-25T10:26:25.481Z,52.20
2018-03-25T10:28:52.984Z,52.90
2018-03-25T10:31:21.215Z,52.00
2018-03-25T10:33:49.940Z,51.90
2018-03-25T10:36:17.376Z,51.60
2018-03-25T10:38:44.833Z,52.00
2018-03-25T10:41:13.055Z,52.40
2018-03-25T10:43:42.237Z,52.50
2018-03-25T10:46:10.447Z,51.70
2018-03-25T10:48:37.938Z,51.60
2018-03-25T10:51:05.487Z,50.10
2018-03-25T10:53:32.973Z,50.80
2018-03-25T10:56:09.872Z,50.70
2018-03-25T10:58:38.095Z,48.80
2018-03-25T11:01:05.531Z,48.60
2018-03-25T11:03:33.200Z,47.80
2018-03-25T11:06:00.792Z,47.20
2018-03-25T11:11:14.419Z,47.30
2018-03-25T11:13:41.904Z,46.30
2018-03-25T11:16:09.370Z,47.10
2018-03-25T11:18:36.872Z,45.90
2018-03-25T11:21:11.061Z,46.70
2018-03-25T11:23:38.541Z,46.90
2018-03-25T11:26:05.991Z,46.30
2018-03-25T11:28:34.568Z,47.30
2018-03-25T11:31:01.998Z,47.30
2018-03-25T11:33:29.469Z,46.30
2018-03-25T11:35:56.954Z,46.10
2018-03-25T11:38:25.206Z,45.50
2018-03-25T11:40:52.674Z,45.50
2018-03-25T11:43:20.903Z,45.70
2018-03-25T11:45:56.432Z,44.40
2018-03-25T11:48:23.892Z,44.40
2018-03-25T11:50:51.384Z,45.00
2018-03-25T11:53:18.858Z,45.70
2018-03-25T11:55:46.327Z,45.40
2018-03-25T11:58:13.772Z,44.90
2018-03-25T12:00:41.246Z,44.00
2018-03-25T12:03:19.722Z,43.50
2018-03-25T12:06:07.101Z,43.40
2018-03-25T12:12:05.831Z,44.50
2018-03-25T12:17:29.481Z,42.90
2018-03-25T12:20:16.828Z,42.20
2018-03-25T12:22:44.511Z,42.20
2018-03-25T12:33:49.789Z,44.10
2018-03-25T12:42:12.242Z,43.80
2018-03-25T12:50:30.911Z,44.00
2018-03-25T12:56:05.608Z,43.40
2018-03-25T13:01:54.473Z,43.20
2018-03-25T13:11:05.595Z,42.90
2018-03-25T13:16:54.356Z,44.20
2018-03-25T13:19:23.876Z,44.20
2018-03-25T13:22:20.168Z,43.40
2018-03-25T13:48:06.904Z,42.90
2018-03-25T13:50:59.194Z,43.90
2018-03-25T13:57:21.656Z,42.90
2018-03-25T14:06:33.404Z,42.40
2018-03-25T14:09:27.032Z,42.20
2018-03-25T14:12:11.399Z,42.60
2018-03-25T14:14:47.189Z,43.60
2018-03-25T14:20:32.219Z,42.60
2018-03-25T14:26:10.718Z,43.00
2018-03-25T14:40:32.140Z,42.60
2018-03-25T14:46:06.488Z,43.10
2018-03-25T14:51:26.988Z,43.90
2018-03-25T15:08:40.149Z,43.30
2018-03-25T15:38:12.463Z,44.60
2018-03-25T15:40:52.723Z,44.80
2018-03-25T15:43:20.152Z,45.00
2018-03-25T15:45:47.631Z,44.50
2018-03-25T15:48:15.071Z,44.80
2018-03-25T15:50:42.552Z,45.50
2018-03-25T15:53:10.771Z,45.10
2018-03-25T15:55:38.219Z,45.00
2018-03-25T15:58:05.663Z,45.40
2018-03-25T16:00:33.996Z,45.20
2018-03-25T16:03:02.912Z,46.00
2018-03-25T16:05:30.356Z,45.80
2018-03-25T16:07:57.947Z,45.90
2018-03-25T16:10:25.413Z,45.10
2018-03-25T16:12:53.624Z,46.20
2018-03-25T16:15:31.505Z,46.20
2018-03-25T16:17:59.703Z,45.70
2018-03-25T16:20:27.203Z,45.60
2018-03-25T16:22:54.727Z,45.70
2018-03-25T16:25:22.356Z,46.30
2018-03-25T16:27:50.553Z,46.50
2018-03-25T16:30:25.504Z,46.50
2018-03-25T16:32:53.828Z,46.90
2018-03-25T16:35:22.065Z,46.60
2018-03-25T16:37:49.512Z,46.50
2018-03-25T16:40:17.007Z,46.70
2018-03-25T16:42:45.974Z,47.80
2018-03-25T16:45:13.766Z,47.70
2018-03-25T16:48:00.776Z,47.70
2018-03-25T16:50:28.227Z,47.80
2018-03-25T16:52:56.417Z,47.80
2018-03-25T16:55:23.891Z,47.80
2018-03-25T16:57:52.101Z,47.80
2018-03-25T17:00:19.627Z,47.80
2018-03-25T17:02:47.905Z,48.10
2018-03-25T17:05:16.196Z,48.50
2018-03-25T17:07:44.403Z,48.70
2018-03-25T17:10:11.917Z,48.60
2018-03-25T17:12:40.124Z,48.50
2018-03-25T17:15:07.581Z,48.50
2018-03-25T17:17:35.023Z,48.40
2018-03-25T17:20:02.467Z,48.40
2018-03-25T17:22:34.564Z,48.90
2018-03-25T17:25:02.167Z,48.80
2018-03-25T17:27:29.599Z,48.80
2018-03-25T17:29:57.056Z,48.50
2018-03-25T17:32:24.501Z,48.90
2018-03-25T17:34:58.260Z,48.80
2018-03-25T17:37:26.487Z,49.60
2018-03-25T17:39:54.078Z,49.50
2018-03-25T17:42:21.536Z,49.60
2018-03-25T17:44:49.038Z,49.90
2018-03-25T17:47:17.256Z,49.90
2018-03-25T17:49:44.752Z,49.90
2018-03-25T17:52:12.197Z,50.60
2018-03-25T17:54:44.901Z,49.70
2018-03-25T17:57:27.169Z,49.70
2018-03-25T17:59:54.607Z,49.70
2018-03-25T18:02:22.185Z,50.20
2018-03-25T18:04:49.990Z,49.90
2018-03-25T18:07:18.248Z,50.50
2018-03-25T18:09:45.679Z,50.50
2018-03-25T18:12:13.538Z,50.70
2018-03-25T18:14:40.985Z,51.00
2018-03-25T18:20:02.553Z,50.90
2018-03-25T18:22:30.025Z,50.80
2018-03-25T18:24:57.462Z,50.90
2018-03-25T18:27:25.728Z,52.00
2018-03-25T18:29:53.180Z,51.30
2018-03-25T18:32:20.630Z,51.60
2018-03-25T18:34:48.067Z,51.20
2018-03-25T18:37:15.535Z,50.20
2018-03-25T18:39:55.851Z,51.40
2018-03-25T18:42:24.083Z,51.60
2018-03-25T18:44:52.400Z,51.60
2018-03-25T18:47:20.626Z,51.70
2018-03-25T18:49:48.126Z,51.70
2018-03-25T18:52:15.618Z,52.20
2018-03-25T18:54:43.059Z,52.00
2018-03-25T19:00:04.105Z,51.20
2018-03-25T19:02:31.584Z,51.30
2018-03-25T19:04:59.016Z,51.90
2018-03-25T19:07:26.496Z,52.60
2018-03-25T19:12:33.943Z,53.30
2018-03-25T19:15:01.382Z,53.50
2018-03-25T19:17:34.624Z,53.50
2018-03-25T19:20:02.831Z,55.10
2018-03-25T19:22:30.392Z,55.10
2018-03-25T19:24:57.851Z,55.20
2018-03-25T19:27:26.042Z,55.50
2018-03-25T19:29:53.535Z,55.30
2018-03-25T19:32:21.000Z,55.70
2018-03-25T19:34:48.486Z,55.80
2018-03-25T19:37:16.694Z,56.20
2018-03-25T19:39:44.156Z,56.70
2018-03-25T19:42:11.617Z,56.70
2018-03-25T19:44:39.150Z,56.60
2018-03-25T19:47:06.627Z,56.70
2018-03-25T19:49:34.847Z,57.40
2018-03-25T19:52:02.331Z,57.30
2018-03-25T19:54:29.856Z,57.70
2018-03-25T19:56:57.411Z,58.00
2018-03-25T19:59:26.212Z,58.10
2018-03-25T20:02:14.206Z,58.30
2018-03-25T20:04:45.856Z,58.70
2018-03-25T20:07:13.322Z,58.70
2018-03-25T20:09:41.825Z,58.80
2018-03-25T20:12:09.991Z,59.90
2018-03-25T20:14:37.424Z,61.20
2018-03-25T20:17:05.051Z,61.60
2018-03-25T20:19:33.288Z,61.30
2018-03-25T20:22:03.102Z,61.20
2018-03-25T20:24:30.528Z,61.80
2018-03-25T20:26:58.086Z,62.30
2018-03-25T20:29:25.527Z,62.10
2018-03-25T20:31:53.007Z,62.00
2018-03-25T20:34:37.680Z,61.90
2018-03-25T20:37:05.181Z,62.20
2018-03-25T20:39:32.627Z,62.40
2018-03-25T20:42:00.077Z,62.80
2018-03-25T20:44:30.515Z,62.90
2018-03-25T20:46:58.277Z,62.80
2018-03-25T20:49:26.495Z,63.40
2018-03-25T20:51:53.957Z,63.30
2018-03-25T20:54:21.409Z,63.50
2018-03-25T20:56:48.892Z,63.70
2018-03-25T20:59:16.342Z,64.00
2018-03-25T21:01:43.896Z,64.30
2018-03-25T21:04:11.316Z,64.30
2018-03-25T21:06:39.956Z,64.50
2018-03-25T21:09:07.881Z,64.40
2018-03-25T21:11:36.165Z,65.30
2018-03-25T21:14:04.474Z,65.60
2018-03-25T21:16:32.011Z,65.60
2018-03-25T21:18:59.499Z,66.10
2018-03-25T21:21:26.962Z,66.40
2018-03-25T21:23:54.435Z,66.70
2018-03-25T21:26:21.922Z,67.00
2018-03-25T21:28:49.451Z,67.60
2018-03-25T21:34:09.641Z,67.40
2018-03-25T21:36:37.216Z,67.90
2018-03-25T21:39:04.744Z,68.30
2018-03-25T21:41:32.211Z,68.60
2018-03-25T21:43:59.672Z,68.70
2018-03-25T21:46:27.237Z,68.50
2018-03-25T21:48:54.774Z,69.00
2018-03-25T21:51:22.296Z,68.70
2018-03-25T21:53:52.550Z,68.20
2018-03-25T21:56:20.757Z,68.70
2018-03-25T21:58:48.220Z,68.50
2018-03-25T22:01:16.757Z,68.40
2018-03-25T22:03:46.158Z,69.40
2018-03-25T22:06:14.451Z,70.70
2018-03-25T22:08:42.068Z,69.70
2018-03-25T22:11:10.408Z,69.60
2018-03-25T22:13:37.879Z,69.30
2018-03-25T22:16:05.340Z,69.80
2018-03-25T22:18:32.791Z,69.40
2018-03-25T22:21:00.263Z,69.70
2018-03-25T22:23:27.752Z,69.90
2018-03-25T22:25:56.125Z,69.80
2018-03-25T22:28:23.651Z,69.70
2018-03-25T22:31:11.096Z,69.70
2018-03-25T22:33:38.604Z,69.60
2018-03-25T22:36:06.036Z,70.00
2018-03-25T22:38:34.272Z,70.40
2018-03-25T22:41:02.644Z,70.30
2018-03-25T22:43:30.089Z,69.90
2018-03-25T22:45:57.568Z,69.90
2018-03-25T22:48:25.120Z,70.00
2018-03-25T22:50:52.584Z,70.20
2018-03-25T22:53:39.173Z,70.50
2018-03-25T22:56:06.617Z,70.80
2018-03-25T22:58:44.320Z,70.80
2018-03-25T23:01:11.916Z,70.50
2018-03-25T23:03:39.385Z,70.50
2018-03-25T23:06:07.530Z,70.20
2018-03-25T23:08:34.986Z,70.50
2018-03-25T23:11:08.912Z,70.70
2018-03-25T23:13:36.401Z,70.60
2018-03-25T23:16:03.836Z,70.80
2018-03-25T23:18:31.306Z,71.50
2018-03-25T23:20:58.751Z,70.50
2018-03-25T23:23:26.994Z,70.00
2018-03-25T23:25:54.437Z,69.90
2018-03-25T23:28:21.878Z,70.10
2018-03-25T23:30:50.383Z,70.10
2018-03-25T23:33:20.904Z,70.30
2018-03-25T23:38:43.267Z,70.70
2018-03-25T23:41:10.728Z,70.60
2018-03-25T23:43:38.559Z,70.40
2018-03-25T23:46:06.771Z,70.50
2018-03-25T23:48:34.233Z,70.40
2018-03-25T23:51:07.504Z,69.90
2018-03-25T23:53:35.713Z,70.00
2018-03-25T23:56:03.163Z,69.80
2018-03-25T23:58:30.711Z,70.50
